sensor_id;sensor_type;location;lat;lon;timestamp;pressure;altitude;pressure_sealevel;temperature;humidity
28606;BME280;46498;49.968;7.754;2023-02-16T00:03:56;98012.00;;;-1.42;100.00
28606;BME280;46498;49.968;7.754;2023-02-16T00:08:57;98008.00;;;-1.48;100.00
28606;BME280;46498;49.968;7.754;2023-02-16T00:13:58;98011.00;;;-1.38;100.00
28606;BME280;46498;49.968;7.754;2023-02-16T00:18:59;98014.00;;;-1.41;100.00
28606;BME280;46498;49.968;7.754;2023-02-16T00:23:59;98016.00;;;-1.54;100.00
28606;BME280;46498;49.968;7.754;2023-02-16T00:29:00;98010.00;;;-1.69;100.00
28606;BME280;46498;49.968;7.754;2023-02-16T00:39:52;98011.00;;;-1.95;100.00
28606;BME280;46498;49.968;7.754;2023-02-16T00:44:55;98014.00;;;-1.97;100.00
28606;BME280;46498;49.968;7.754;2023-02-16T00:49:57;98013.00;;;-2.01;100.00
28606;BME280;46498;49.968;7.754;2023-02-16T00:54:59;98018.00;;;-1.91;100.00
28606;BME280;46498;49.968;7.754;2023-02-16T01:00:03;98004.00;;;-1.91;100.00
28606;BME280;46498;49.968;7.754;2023-02-16T01:05:06;98011.00;;;-1.82;100.00
28606;BME280;46498;49.968;7.754;2023-02-16T01:10:09;98009.00;;;-1.73;100.00
28606;BME280;46498;49.968;7.754;2023-02-16T01:15:28;98004.00;;;-1.73;100.00
28606;BME280;46498;49.968;7.754;2023-02-16T01:20:29;98015.00;;;-1.64;100.00
28606;BME280;46498;49.968;7.754;2023-02-16T01:25:30;98007.00;;;-1.58;100.00
28606;BME280;46498;49.968;7.754;2023-02-16T01:30:31;97997.00;;;-1.79;100.00
28606;BME280;46498;49.968;7.754;2023-02-16T01:35:32;97989.00;;;-1.82;100.00
28606;BME280;46498;49.968;7.754;2023-02-16T01:40:41;97993.00;;;-1.83;100.00
28606;BME280;46498;49.968;7.754;2023-02-16T01:45:47;97994.00;;;-1.79;100.00
28606;BME280;46498;49.968;7.754;2023-02-16T01:51:21;97996.00;;;-1.71;100.00
28606;BME280;46498;49.968;7.754;2023-02-16T01:56:39;97985.00;;;-1.90;100.00
28606;BME280;46498;49.968;7.754;2023-02-16T02:01:46;97985.00;;;-1.81;100.00
28606;BME280;46498;49.968;7.754;2023-02-16T02:06:52;97983.00;;;-1.91;100.00
28606;BME280;46498;49.968;7.754;2023-02-16T02:12:05;97979.00;;;-1.95;100.00
28606;BME280;46498;49.968;7.754;2023-02-16T02:17:12;97974.00;;;-1.98;100.00
28606;BME280;46498;49.968;7.754;2023-02-16T02:23:15;97967.00;;;-2.04;100.00
28606;BME280;46498;49.968;7.754;2023-02-16T02:28:55;97965.00;;;-2.14;100.00
28606;BME280;46498;49.968;7.754;2023-02-16T02:37:18;97968.00;;;-2.33;100.00
28606;BME280;46498;49.968;7.754;2023-02-16T02:43:21;97957.00;;;-2.38;100.00
28606;BME280;46498;49.968;7.754;2023-02-16T02:48:29;97950.00;;;-2.19;100.00
28606;BME280;46498;49.968;7.754;2023-02-16T02:53:30;97952.00;;;-2.24;100.00
28606;BME280;46498;49.968;7.754;2023-02-16T02:58:35;97952.00;;;-2.39;100.00
28606;BME280;46498;49.968;7.754;2023-02-16T03:03:55;97947.00;;;-2.51;100.00
28606;BME280;46498;49.968;7.754;2023-02-16T03:09:04;97956.00;;;-2.49;100.00
28606;BME280;46498;49.968;7.754;2023-02-16T03:14:14;97951.00;;;-2.47;100.00
28606;BME280;46498;49.968;7.754;2023-02-16T03:19:16;97951.00;;;-2.40;100.00
28606;BME280;46498;49.968;7.754;2023-02-16T03:24:36;97956.00;;;-2.35;100.00
28606;BME280;46498;49.968;7.754;2023-02-16T03:29:56;97949.00;;;-2.24;100.00
28606;BME280;46498;49.968;7.754;2023-02-16T03:34:58;97952.00;;;-2.34;100.00
28606;BME280;46498;49.968;7.754;2023-02-16T03:39:59;97957.00;;;-2.14;100.00
28606;BME280;46498;49.968;7.754;2023-02-16T03:45:20;97949.00;;;-2.09;100.00
28606;BME280;46498;49.968;7.754;2023-02-16T03:50:22;97948.00;;;-2.03;100.00
28606;BME280;46498;49.968;7.754;2023-02-16T03:55:23;97946.00;;;-2.02;100.00
28606;BME280;46498;49.968;7.754;2023-02-16T04:00:24;97940.00;;;-2.00;100.00
28606;BME280;46498;49.968;7.754;2023-02-16T04:05:25;97944.00;;;-1.97;100.00
28606;BME280;46498;49.968;7.754;2023-02-16T04:10:26;97942.00;;;-1.89;100.00
28606;BME280;46498;49.968;7.754;2023-02-16T04:15:29;97944.00;;;-1.96;100.00
28606;BME280;46498;49.968;7.754;2023-02-16T04:20:32;97934.00;;;-2.07;100.00
28606;BME280;46498;49.968;7.754;2023-02-16T04:25:33;97927.00;;;-2.11;100.00
28606;BME280;46498;49.968;7.754;2023-02-16T04:30:35;97932.00;;;-2.11;100.00
28606;BME280;46498;49.968;7.754;2023-02-16T04:35:36;97934.00;;;-2.24;100.00
28606;BME280;46498;49.968;7.754;2023-02-16T04:40:36;97939.00;;;-2.14;100.00
28606;BME280;46498;49.968;7.754;2023-02-16T04:45:37;97936.00;;;-2.28;100.00
28606;BME280;46498;49.968;7.754;2023-02-16T04:50:38;97935.00;;;-2.26;100.00
28606;BME280;46498;49.968;7.754;2023-02-16T04:55:39;97943.00;;;-2.45;100.00
28606;BME280;46498;49.968;7.754;2023-02-16T05:00:44;97941.00;;;-2.29;100.00
28606;BME280;46498;49.968;7.754;2023-02-16T05:05:45;97932.00;;;-2.52;100.00
28606;BME280;46498;49.968;7.754;2023-02-16T05:10:46;97932.00;;;-2.63;100.00
28606;BME280;46498;49.968;7.754;2023-02-16T05:19:42;97930.00;;;-2.68;100.00
28606;BME280;46498;49.968;7.754;2023-02-16T05:24:43;97928.00;;;-2.95;100.00
28606;BME280;46498;49.968;7.754;2023-02-16T05:29:45;97933.00;;;-2.95;100.00
28606;BME280;46498;49.968;7.754;2023-02-16T05:34:46;97946.00;;;-3.03;100.00
28606;BME280;46498;49.968;7.754;2023-02-16T05:39:47;97949.00;;;-2.95;100.00
28606;BME280;46498;49.968;7.754;2023-02-16T05:44:48;97960.00;;;-2.93;100.00
28606;BME280;46498;49.968;7.754;2023-02-16T05:49:49;97959.00;;;-2.92;100.00
28606;BME280;46498;49.968;7.754;2023-02-16T05:54:50;97966.00;;;-2.97;100.00
28606;BME280;46498;49.968;7.754;2023-02-16T05:59:50;97960.00;;;-2.93;100.00
28606;BME280;46498;49.968;7.754;2023-02-16T06:04:52;97964.00;;;-3.07;100.00
28606;BME280;46498;49.968;7.754;2023-02-16T06:09:54;97964.00;;;-3.24;100.00
28606;BME280;46498;49.968;7.754;2023-02-16T06:14:55;97970.00;;;-3.35;100.00
28606;BME280;46498;49.968;7.754;2023-02-16T06:19:56;97978.00;;;-3.14;100.00
28606;BME280;46498;49.968;7.754;2023-02-16T06:24:57;97970.00;;;-3.20;100.00
28606;BME280;46498;49.968;7.754;2023-02-16T06:29:58;97974.00;;;-3.31;100.00
28606;BME280;46498;49.968;7.754;2023-02-16T06:34:59;97969.00;;;-3.38;100.00
28606;BME280;46498;49.968;7.754;2023-02-16T06:39:59;97974.00;;;-3.36;100.00
28606;BME280;46498;49.968;7.754;2023-02-16T06:45:01;97972.00;;;-3.27;100.00
28606;BME280;46498;49.968;7.754;2023-02-16T06:50:04;97973.00;;;-3.17;100.00
28606;BME280;46498;49.968;7.754;2023-02-16T06:55:05;97977.00;;;-3.11;100.00
28606;BME280;46498;49.968;7.754;2023-02-16T07:00:07;97979.00;;;-3.13;100.00
28606;BME280;46498;49.968;7.754;2023-02-16T07:05:09;97979.00;;;-3.15;100.00
28606;BME280;46498;49.968;7.754;2023-02-16T07:10:10;97981.00;;;-3.00;100.00
28606;BME280;46498;49.968;7.754;2023-02-16T07:15:11;97988.00;;;-2.86;100.00
28606;BME280;46498;49.968;7.754;2023-02-16T07:20:12;97985.00;;;-2.72;100.00
28606;BME280;46498;49.968;7.754;2023-02-16T07:25:12;97991.00;;;-2.58;100.00
28606;BME280;46498;49.968;7.754;2023-02-16T07:30:14;97995.00;;;-2.56;100.00
28606;BME280;46498;49.968;7.754;2023-02-16T07:35:16;98005.00;;;-2.53;100.00
28606;BME280;46498;49.968;7.754;2023-02-16T07:40:17;97992.00;;;-2.38;100.00
28606;BME280;46498;49.968;7.754;2023-02-16T07:45:18;98002.00;;;-2.08;100.00
28606;BME280;46498;49.968;7.754;2023-02-16T07:50:19;98000.00;;;-1.77;100.00
28606;BME280;46498;49.968;7.754;2023-02-16T07:55:20;98000.00;;;-1.48;100.00
28606;BME280;46498;49.968;7.754;2023-02-16T08:00:20;98007.00;;;-1.59;100.00
28606;BME280;46498;49.968;7.754;2023-02-16T08:05:22;98003.00;;;-1.43;100.00
28606;BME280;46498;49.968;7.754;2023-02-16T08:10:23;98004.00;;;-1.42;100.00
28606;BME280;46498;49.968;7.754;2023-02-16T08:15:24;98011.00;;;-1.28;100.00
28606;BME280;46498;49.968;7.754;2023-02-16T08:20:24;97998.00;;;-0.90;100.00
28606;BME280;46498;49.968;7.754;2023-02-16T08:25:51;98014.00;;;-1.07;100.00
28606;BME280;46498;49.968;7.754;2023-02-16T08:30:52;98024.00;;;-0.93;100.00
28606;BME280;46498;49.968;7.754;2023-02-16T08:35:53;98030.00;;;-1.19;100.00
28606;BME280;46498;49.968;7.754;2023-02-16T08:40:54;98038.00;;;-1.08;100.00
28606;BME280;46498;49.968;7.754;2023-02-16T08:45:55;98027.00;;;-1.00;100.00
28606;BME280;46498;49.968;7.754;2023-02-16T08:50:56;98030.00;;;-0.72;100.00
28606;BME280;46498;49.968;7.754;2023-02-16T08:55:59;98030.00;;;-0.23;100.00
28606;BME280;46498;49.968;7.754;2023-02-16T09:01:03;98031.00;;;-0.07;100.00
28606;BME280;46498;49.968;7.754;2023-02-16T09:06:05;98030.00;;;0.35;100.00
28606;BME280;46498;49.968;7.754;2023-02-16T09:11:11;98031.00;;;0.74;100.00
28606;BME280;46498;49.968;7.754;2023-02-16T09:16:15;98033.00;;;0.92;100.00
28606;BME280;46498;49.968;7.754;2023-02-16T09:21:19;98023.00;;;0.99;100.00
28606;BME280;46498;49.968;7.754;2023-02-16T09:26:22;98014.00;;;1.07;100.00
28606;BME280;46498;49.968;7.754;2023-02-16T09:31:26;98013.00;;;1.05;100.00
28606;BME280;46498;49.968;7.754;2023-02-16T09:36:28;98020.00;;;1.46;100.00
28606;BME280;46498;49.968;7.754;2023-02-16T09:46:34;98018.00;;;2.01;100.00
28606;BME280;46498;49.968;7.754;2023-02-16T09:51:38;98008.00;;;2.14;100.00
28606;BME280;46498;49.968;7.754;2023-02-16T09:56:46;98014.00;;;2.58;100.00
28606;BME280;46498;49.968;7.754;2023-02-16T10:07:43;98010.00;;;3.05;100.00
28606;BME280;46498;49.968;7.754;2023-02-16T10:12:51;98017.00;;;2.89;100.00
28606;BME280;46498;49.968;7.754;2023-02-16T10:17:57;98017.00;;;2.67;100.00
28606;BME280;46498;49.968;7.754;2023-02-16T10:26:35;98009.00;;;2.52;100.00
28606;BME280;46498;49.968;7.754;2023-02-16T10:31:42;98006.00;;;2.67;100.00
28606;BME280;46498;49.968;7.754;2023-02-16T10:38:44;98007.00;;;2.62;100.00
28606;BME280;46498;49.968;7.754;2023-02-16T10:45:50;98008.00;;;3.19;100.00
28606;BME280;46498;49.968;7.754;2023-02-16T10:51:11;97997.00;;;3.00;100.00
28606;BME280;46498;49.968;7.754;2023-02-16T11:02:23;98005.00;;;3.05;100.00
28606;BME280;46498;49.968;7.754;2023-02-16T11:07:26;98005.00;;;3.22;100.00
28606;BME280;46498;49.968;7.754;2023-02-16T11:12:34;98005.00;;;2.84;100.00
28606;BME280;46498;49.968;7.754;2023-02-16T11:19:27;97996.00;;;2.52;100.00
28606;BME280;46498;49.968;7.754;2023-02-16T11:24:34;97994.00;;;2.34;100.00
28606;BME280;46498;49.968;7.754;2023-02-16T11:29:36;97992.00;;;2.61;100.00
28606;BME280;46498;49.968;7.754;2023-02-16T11:34:42;97983.00;;;3.17;100.00
28606;BME280;46498;49.968;7.754;2023-02-16T11:39:50;97982.00;;;4.12;100.00
28606;BME280;46498;49.968;7.754;2023-02-16T11:44:53;97986.00;;;4.75;100.00
28606;BME280;46498;49.968;7.754;2023-02-16T11:50:26;97979.00;;;4.98;100.00
28606;BME280;46498;49.968;7.754;2023-02-16T11:55:30;97979.00;;;4.77;100.00
28606;BME280;46498;49.968;7.754;2023-02-16T12:00:33;97979.00;;;5.16;100.00
28606;BME280;46498;49.968;7.754;2023-02-16T12:19:40;97974.00;;;4.74;100.00
28606;BME280;46498;49.968;7.754;2023-02-16T12:25:07;97956.00;;;4.43;100.00
28606;BME280;46498;49.968;7.754;2023-02-16T12:33:09;97952.00;;;4.05;100.00
28606;BME280;46498;49.968;7.754;2023-02-16T12:38:39;97958.00;;;3.81;100.00
28606;BME280;46498;49.968;7.754;2023-02-16T12:43:53;97951.00;;;3.94;100.00
28606;BME280;46498;49.968;7.754;2023-02-16T12:49:50;97948.00;;;3.79;100.00
28606;BME280;46498;49.968;7.754;2023-02-16T12:54:55;97942.00;;;4.07;100.00
28606;BME280;46498;49.968;7.754;2023-02-16T13:00:08;97942.00;;;4.11;100.00
28606;BME280;46498;49.968;7.754;2023-02-16T13:05:24;97930.00;;;4.10;100.00
28606;BME280;46498;49.968;7.754;2023-02-16T13:10:33;97917.00;;;4.10;100.00
28606;BME280;46498;49.968;7.754;2023-02-16T13:15:49;97911.00;;;3.89;100.00
28606;BME280;46498;49.968;7.754;2023-02-16T13:20:57;97902.00;;;3.87;100.00
28606;BME280;46498;49.968;7.754;2023-02-16T13:26:24;97897.00;;;3.82;100.00
28606;BME280;46498;49.968;7.754;2023-02-16T13:31:55;97886.00;;;3.80;100.00
28606;BME280;46498;49.968;7.754;2023-02-16T13:44:02;97888.00;;;4.09;100.00
28606;BME280;46498;49.968;7.754;2023-02-16T13:49:30;97882.00;;;4.22;100.00
28606;BME280;46498;49.968;7.754;2023-02-16T13:54:33;97884.00;;;4.20;100.00
28606;BME280;46498;49.968;7.754;2023-02-16T13:59:48;97882.00;;;4.05;100.00
28606;BME280;46498;49.968;7.754;2023-02-16T14:05:01;97859.00;;;4.01;100.00
28606;BME280;46498;49.968;7.754;2023-02-16T14:10:04;97868.00;;;3.99;100.00
28606;BME280;46498;49.968;7.754;2023-02-16T14:15:16;97855.00;;;4.09;100.00
28606;BME280;46498;49.968;7.754;2023-02-16T14:20:25;97860.00;;;4.13;100.00
28606;BME280;46498;49.968;7.754;2023-02-16T14:25:33;97851.00;;;4.03;100.00
28606;BME280;46498;49.968;7.754;2023-02-16T14:30:51;97854.00;;;4.08;100.00
28606;BME280;46498;49.968;7.754;2023-02-16T14:36:26;97853.00;;;3.98;100.00
28606;BME280;46498;49.968;7.754;2023-02-16T14:41:33;97860.00;;;3.96;100.00
28606;BME280;46498;49.968;7.754;2023-02-16T14:55:38;97859.00;;;3.97;100.00
28606;BME280;46498;49.968;7.754;2023-02-16T15:00:54;97859.00;;;4.18;100.00
28606;BME280;46498;49.968;7.754;2023-02-16T15:05:59;97852.00;;;4.17;100.00
28606;BME280;46498;49.968;7.754;2023-02-16T15:11:13;97868.00;;;4.30;100.00
28606;BME280;46498;49.968;7.754;2023-02-16T15:16:15;97879.00;;;4.27;100.00
28606;BME280;46498;49.968;7.754;2023-02-16T15:21:22;97875.00;;;4.01;100.00
28606;BME280;46498;49.968;7.754;2023-02-16T15:26:34;97868.00;;;4.03;100.00
28606;BME280;46498;49.968;7.754;2023-02-16T15:31:36;97861.00;;;4.04;100.00
28606;BME280;46498;49.968;7.754;2023-02-16T15:36:40;97849.00;;;3.94;100.00
28606;BME280;46498;49.968;7.754;2023-02-16T15:41:44;97859.00;;;3.94;100.00
28606;BME280;46498;49.968;7.754;2023-02-16T15:46:47;97842.00;;;4.01;100.00
28606;BME280;46498;49.968;7.754;2023-02-16T15:51:48;97840.00;;;3.99;100.00
28606;BME280;46498;49.968;7.754;2023-02-16T15:56:50;97837.00;;;4.18;100.00
28606;BME280;46498;49.968;7.754;2023-02-16T16:02:00;97836.00;;;4.36;100.00
28606;BME280;46498;49.968;7.754;2023-02-16T16:07:06;97826.00;;;4.45;100.00
28606;BME280;46498;49.968;7.754;2023-02-16T16:12:11;97820.00;;;4.62;100.00
28606;BME280;46498;49.968;7.754;2023-02-16T16:17:14;97818.00;;;5.15;100.00
28606;BME280;46498;49.968;7.754;2023-02-16T16:22:33;97824.00;;;5.30;100.00
28606;BME280;46498;49.968;7.754;2023-02-16T16:27:35;97819.00;;;5.30;100.00
28606;BME280;46498;49.968;7.754;2023-02-16T16:32:37;97821.00;;;5.31;100.00
28606;BME280;46498;49.968;7.754;2023-02-16T16:37:38;97826.00;;;5.36;100.00
28606;BME280;46498;49.968;7.754;2023-02-16T16:43:05;97829.00;;;5.22;100.00
28606;BME280;46498;49.968;7.754;2023-02-16T16:48:31;97824.00;;;5.36;100.00
28606;BME280;46498;49.968;7.754;2023-02-16T16:53:40;97823.00;;;5.63;100.00
28606;BME280;46498;49.968;7.754;2023-02-16T16:58:41;97828.00;;;5.65;100.00
28606;BME280;46498;49.968;7.754;2023-02-16T17:03:42;97824.00;;;5.72;100.00
28606;BME280;46498;49.968;7.754;2023-02-16T17:08:43;97820.00;;;6.01;100.00
28606;BME280;46498;49.968;7.754;2023-02-16T17:13:44;97831.00;;;6.09;100.00
28606;BME280;46498;49.968;7.754;2023-02-16T17:18:45;97836.00;;;6.18;100.00
28606;BME280;46498;49.968;7.754;2023-02-16T17:23:46;97837.00;;;6.10;100.00
28606;BME280;46498;49.968;7.754;2023-02-16T17:28:53;97844.00;;;6.06;100.00
28606;BME280;46498;49.968;7.754;2023-02-16T17:33:54;97843.00;;;6.03;100.00
28606;BME280;46498;49.968;7.754;2023-02-16T17:38:55;97843.00;;;6.10;100.00
28606;BME280;46498;49.968;7.754;2023-02-16T17:43:56;97850.00;;;6.01;100.00
28606;BME280;46498;49.968;7.754;2023-02-16T17:48:57;97846.00;;;5.98;100.00
28606;BME280;46498;49.968;7.754;2023-02-16T17:53:58;97845.00;;;6.11;100.00
28606;BME280;46498;49.968;7.754;2023-02-16T17:58:59;97836.00;;;6.12;100.00
28606;BME280;46498;49.968;7.754;2023-02-16T18:04:00;97835.00;;;6.16;100.00
28606;BME280;46498;49.968;7.754;2023-02-16T18:09:03;97836.00;;;6.30;100.00
28606;BME280;46498;49.968;7.754;2023-02-16T18:14:04;97830.00;;;6.33;100.00
28606;BME280;46498;49.968;7.754;2023-02-16T18:19:05;97828.00;;;6.37;100.00
28606;BME280;46498;49.968;7.754;2023-02-16T18:24:08;97825.00;;;6.35;100.00
28606;BME280;46498;49.968;7.754;2023-02-16T18:29:09;97821.00;;;6.29;100.00
28606;BME280;46498;49.968;7.754;2023-02-16T18:34:10;97818.00;;;6.25;100.00
28606;BME280;46498;49.968;7.754;2023-02-16T18:39:11;97819.00;;;6.26;100.00
28606;BME280;46498;49.968;7.754;2023-02-16T18:44:12;97813.00;;;6.17;100.00
28606;BME280;46498;49.968;7.754;2023-02-16T18:49:12;97811.00;;;6.28;100.00
28606;BME280;46498;49.968;7.754;2023-02-16T18:54:13;97824.00;;;6.33;100.00
28606;BME280;46498;49.968;7.754;2023-02-16T18:59:14;97818.00;;;6.37;100.00
28606;BME280;46498;49.968;7.754;2023-02-16T19:04:15;97819.00;;;6.39;100.00
28606;BME280;46498;49.968;7.754;2023-02-16T19:09:17;97814.00;;;6.43;100.00
28606;BME280;46498;49.968;7.754;2023-02-16T19:14:18;97825.00;;;6.46;100.00
28606;BME280;46498;49.968;7.754;2023-02-16T19:19:18;97812.00;;;6.46;100.00
28606;BME280;46498;49.968;7.754;2023-02-16T19:24:19;97818.00;;;6.50;100.00
28606;BME280;46498;49.968;7.754;2023-02-16T19:29:20;97811.00;;;6.47;100.00
28606;BME280;46498;49.968;7.754;2023-02-16T19:34:21;97815.00;;;6.35;100.00
28606;BME280;46498;49.968;7.754;2023-02-16T19:39:22;97817.00;;;6.38;100.00
28606;BME280;46498;49.968;7.754;2023-02-16T19:44:23;97811.00;;;6.34;100.00
28606;BME280;46498;49.968;7.754;2023-02-16T19:49:23;97817.00;;;6.36;100.00
28606;BME280;46498;49.968;7.754;2023-02-16T19:54:24;97824.00;;;6.26;100.00
28606;BME280;46498;49.968;7.754;2023-02-16T19:59:25;97819.00;;;6.07;100.00
28606;BME280;46498;49.968;7.754;2023-02-16T20:04:26;97826.00;;;5.98;100.00
28606;BME280;46498;49.968;7.754;2023-02-16T20:09:27;97811.00;;;5.93;100.00
28606;BME280;46498;49.968;7.754;2023-02-16T20:14:28;97806.00;;;5.85;100.00
28606;BME280;46498;49.968;7.754;2023-02-16T20:19:29;97808.00;;;6.02;100.00
28606;BME280;46498;49.968;7.754;2023-02-16T20:24:30;97795.00;;;6.30;100.00
28606;BME280;46498;49.968;7.754;2023-02-16T20:29:31;97805.00;;;6.12;100.00
28606;BME280;46498;49.968;7.754;2023-02-16T20:34:32;97781.00;;;5.93;100.00
28606;BME280;46498;49.968;7.754;2023-02-16T20:39:33;97776.00;;;5.97;100.00
28606;BME280;46498;49.968;7.754;2023-02-16T20:44:34;97769.00;;;5.80;100.00
28606;BME280;46498;49.968;7.754;2023-02-16T20:49:35;97781.00;;;5.74;100.00
28606;BME280;46498;49.968;7.754;2023-02-16T20:54:36;97782.00;;;5.71;100.00
28606;BME280;46498;49.968;7.754;2023-02-16T20:59:37;97774.00;;;5.63;100.00
28606;BME280;46498;49.968;7.754;2023-02-16T21:04:38;97777.00;;;5.89;100.00
28606;BME280;46498;49.968;7.754;2023-02-16T21:09:39;97770.00;;;5.88;100.00
28606;BME280;46498;49.968;7.754;2023-02-16T21:14:39;97775.00;;;5.90;100.00
28606;BME280;46498;49.968;7.754;2023-02-16T21:19:40;97765.00;;;5.88;100.00
28606;BME280;46498;49.968;7.754;2023-02-16T21:24:41;97754.00;;;5.87;100.00
28606;BME280;46498;49.968;7.754;2023-02-16T21:29:43;97754.00;;;5.95;100.00
28606;BME280;46498;49.968;7.754;2023-02-16T21:34:44;97756.00;;;6.17;100.00
28606;BME280;46498;49.968;7.754;2023-02-16T21:39:45;97754.00;;;6.18;100.00
28606;BME280;46498;49.968;7.754;2023-02-16T21:45:04;97755.00;;;6.46;100.00
28606;BME280;46498;49.968;7.754;2023-02-16T21:50:16;97738.00;;;6.64;100.00
28606;BME280;46498;49.968;7.754;2023-02-16T21:55:17;97738.00;;;6.88;100.00
28606;BME280;46498;49.968;7.754;2023-02-16T22:00:37;97746.00;;;6.88;100.00
28606;BME280;46498;49.968;7.754;2023-02-16T22:05:38;97736.00;;;6.87;100.00
28606;BME280;46498;49.968;7.754;2023-02-16T22:10:39;97735.00;;;6.88;100.00
28606;BME280;46498;49.968;7.754;2023-02-16T22:15:40;97729.00;;;7.14;100.00
28606;BME280;46498;49.968;7.754;2023-02-16T22:20:41;97733.00;;;7.13;100.00
28606;BME280;46498;49.968;7.754;2023-02-16T22:25:41;97730.00;;;7.11;100.00
28606;BME280;46498;49.968;7.754;2023-02-16T22:30:42;97733.00;;;7.30;100.00
28606;BME280;46498;49.968;7.754;2023-02-16T22:35:45;97736.00;;;7.25;100.00
28606;BME280;46498;49.968;7.754;2023-02-16T22:40:46;97729.00;;;7.31;100.00
28606;BME280;46498;49.968;7.754;2023-02-16T22:45:47;97729.00;;;7.34;100.00
28606;BME280;46498;49.968;7.754;2023-02-16T22:50:58;97733.00;;;7.42;100.00
28606;BME280;46498;49.968;7.754;2023-02-16T22:56:00;97737.00;;;7.45;100.00
28606;BME280;46498;49.968;7.754;2023-02-16T23:01:01;97737.00;;;7.32;100.00
28606;BME280;46498;49.968;7.754;2023-02-16T23:06:13;97731.00;;;7.27;100.00
28606;BME280;46498;49.968;7.754;2023-02-16T23:11:14;97732.00;;;7.38;100.00
28606;BME280;46498;49.968;7.754;2023-02-16T23:16:18;97730.00;;;7.24;100.00
28606;BME280;46498;49.968;7.754;2023-02-16T23:21:25;97718.00;;;7.14;100.00
28606;BME280;46498;49.968;7.754;2023-02-16T23:26:28;97722.00;;;7.26;100.00
28606;BME280;46498;49.968;7.754;2023-02-16T23:31:31;97709.00;;;7.15;100.00
28606;BME280;46498;49.968;7.754;2023-02-16T23:36:34;97721.00;;;6.99;100.00
28606;BME280;46498;49.968;7.754;2023-02-16T23:41:36;97730.00;;;6.93;100.00
28606;BME280;46498;49.968;7.754;2023-02-16T23:46:36;97723.00;;;6.96;100.00
28606;BME280;46498;49.968;7.754;2023-02-16T23:51:37;97718.00;;;7.01;100.00
28606;BME280;46498;49.968;7.754;2023-02-16T23:56:38;97723.00;;;7.06;100.00
